Time;durP1;ratioP1;P1;durP2;ratioP2;P2;SDS_P1;SDS_P2;PMS_P1;PMS_P2;Temp;Humidity;BMP_temperature;BMP_pressure;BME280_temperature;BME280_humidity;BME280_pressure;Samples;Min_cycle;Max_cycle;Signal;HPM_P1;HPM_P2
2022/03/13 00:00:49;;;;;;;4.83;2.40;;;0.00;48.70;-1.00;101226.00;;;;4976058;28;87749;-66
2022/03/13 00:03:17;;;;;;;4.33;2.43;;;-0.60;48.50;-1.00;101206.00;;;;4961557;28;87794;-66
2022/03/13 00:05:46;;;;;;;3.07;2.30;;;-0.50;48.60;-1.00;101219.00;;;;4965912;28;88628;-66
2022/03/13 00:08:23;;;;;;;3.20;2.90;;;-0.70;48.50;-1.00;101221.00;;;;4975872;28;88053;-67
2022/03/13 00:10:56;;;;;;;4.63;3.30;;;-0.40;48.60;-1.00;101210.00;;;;4957439;28;87538;-66
2022/03/13 00:13:48;;;;;;;7.47;3.00;;;0.10;48.90;-1.10;101219.00;;;;4956700;28;87104;-66
2022/03/13 00:16:15;;;;;;;4.33;2.80;;;-0.70;48.60;-1.10;101203.00;;;;4933781;28;87851;-66
2022/03/13 00:18:46;;;;;;;3.53;2.87;;;-0.70;48.70;-1.10;101213.00;;;;4942690;28;88323;-66
2022/03/13 00:21:14;;;;;;;3.53;2.40;;;-0.70;48.80;-1.10;101204.00;;;;4966144;28;88754;-66
2022/03/13 00:23:40;;;;;;;3.07;2.63;;;-0.10;49.10;-1.10;101212.00;;;;4959382;28;87991;-67
2022/03/13 00:26:07;;;;;;;4.57;3.10;;;-0.50;48.90;-1.10;101197.00;;;;4960644;28;96419;-67
2022/03/13 00:28:32;;;;;;;4.60;2.33;;;-0.80;48.80;-1.10;101201.00;;;;4971390;28;89001;-67
2022/03/13 00:30:58;;;;;;;3.53;2.50;;;-0.60;48.90;-1.10;101187.00;;;;4956588;28;88155;-68
2022/03/13 00:33:25;;;;;;;3.87;3.00;;;-0.30;48.90;-1.00;101187.00;;;;4956004;28;88072;-66
2022/03/13 00:35:51;;;;;;;4.03;2.70;;;-0.70;48.60;-1.00;101180.00;;;;4954933;28;89630;-66
2022/03/13 00:38:19;;;;;;;3.73;2.57;;;-0.60;48.50;-1.00;101189.00;;;;4956056;28;88066;-65
2022/03/13 00:40:51;;;;;;;4.80;2.63;;;-0.60;48.40;-1.00;101185.00;;;;4956847;28;88014;-65
2022/03/13 00:43:22;;;;;;;3.23;2.43;;;-0.60;48.50;-1.00;101192.00;;;;4954632;28;87887;-65
2022/03/13 00:45:48;;;;;;;6.70;2.70;;;-0.60;48.50;-1.00;101186.00;;;;4974317;28;89564;-66
2022/03/13 00:48:14;;;;;;;4.77;2.60;;;-0.70;48.50;-1.00;101192.00;;;;4974240;28;117727;-66
2022/03/13 00:50:40;;;;;;;3.03;2.17;;;-0.60;48.40;-1.00;101206.00;;;;4975644;28;87544;-65
2022/03/13 00:53:06;;;;;;;3.10;2.07;;;-0.50;48.40;-1.00;101196.00;;;;4974571;28;109104;-65
2022/03/13 00:55:33;;;;;;;5.03;2.20;;;-0.60;48.40;-1.00;101192.00;;;;4971778;28;89573;-66
2022/03/13 00:57:59;;;;;;;4.17;2.63;;;-0.70;48.40;-1.00;101192.00;;;;4975181;28;88450;-65
2022/03/13 01:00:25;;;;;;;2.37;2.10;;;-0.60;48.40;-1.00;101193.00;;;;4975764;28;87853;-66
2022/03/13 01:02:50;;;;;;;5.87;2.40;;;-0.40;48.60;-1.00;101189.00;;;;4972112;28;90977;-65
2022/03/13 01:05:25;;;;;;;3.57;2.97;;;-0.60;48.50;-1.10;101190.00;;;;4974522;28;88102;-65
2022/03/13 01:07:53;;;;;;;5.07;3.30;;;-0.70;48.60;-1.10;101185.00;;;;4974782;28;87599;-65
2022/03/13 01:10:19;;;;;;;2.50;2.07;;;-0.60;48.60;-1.10;101188.00;;;;4975197;28;88458;-67
2022/03/13 01:12:45;;;;;;;3.37;2.40;;;-0.80;48.70;-1.10;101197.00;;;;4968460;28;88054;-68
2022/03/13 01:15:11;;;;;;;2.63;2.37;;;-0.20;49.00;-1.20;101190.00;;;;4940383;28;101744;-65
2022/03/13 01:17:37;;;;;;;3.57;1.83;;;-0.90;48.90;-1.20;101180.00;;;;4966878;28;116672;-66
2022/03/13 01:20:05;;;;;;;5.70;2.93;;;-0.90;49.00;-1.30;101178.00;;;;4955379;28;87840;-65
2022/03/13 01:22:31;;;;;;;3.57;2.73;;;-0.90;49.00;-1.30;101183.00;;;;4973717;28;87849;-66
2022/03/13 01:24:57;;;;;;;2.83;2.30;;;-0.90;49.00;-1.40;101185.00;;;;4973033;28;87794;-66
2022/03/13 01:27:23;;;;;;;7.43;3.27;;;-1.00;49.00;-1.40;101177.00;;;;4973369;28;117122;-65
2022/03/13 01:29:50;;;;;;;4.07;2.70;;;-0.50;49.40;-1.50;101182.00;;;;4974397;28;87866;-66
2022/03/13 01:32:16;;;;;;;5.00;2.90;;;-1.00;49.30;-1.60;101170.00;;;;4973169;28;87435;-65
2022/03/13 01:34:48;;;;;;;6.20;3.47;;;-1.10;49.40;-1.60;101172.00;;;;4958896;28;89003;-66
2022/03/13 01:37:30;;;;;;;6.67;3.30;;;-1.30;49.50;-1.80;101168.00;;;;4953163;28;88970;-65
2022/03/13 01:39:59;;;;;;;4.40;3.17;;;-1.20;49.90;-1.80;101168.00;;;;4955086;28;87882;-65
2022/03/13 01:42:25;;;;;;;9.57;4.23;;;-0.70;50.30;-1.90;101157.00;;;;4969638;28;87795;-65
2022/03/13 01:44:52;;;;;;;5.23;3.47;;;-1.50;50.20;-2.00;101156.00;;;;4954426;28;89082;-68
2022/03/13 01:47:18;;;;;;;11.83;3.93;;;-0.80;50.80;-2.00;101156.00;;;;4964951;28;88152;-65
2022/03/13 01:49:46;;;;;;;4.70;2.70;;;-1.60;50.60;-2.10;101155.00;;;;4955048;28;87871;-65
2022/03/13 01:52:12;;;;;;;4.57;3.13;;;-1.70;50.70;-2.10;101154.00;;;;4955049;28;86864;-65
2022/03/13 01:54:40;;;;;;;4.23;3.27;;;-0.80;51.20;-2.10;101153.00;;;;4955032;28;105971;-67
2022/03/13 01:57:06;;;;;;;4.47;3.00;;;-1.80;51.00;-2.10;101154.00;;;;4954861;28;87859;-66
2022/03/13 01:59:31;;;;;;;4.20;2.00;;;-0.90;51.40;-2.20;101155.00;;;;4963737;28;88840;-67
2022/03/13 02:01:58;;;;;;;5.53;2.47;;;-1.90;51.00;-2.20;101151.00;;;;4973570;28;108986;-67
2022/03/13 02:04:30;;;;;;;5.20;2.97;;;-1.70;51.30;-2.20;101154.00;;;;4973223;28;88933;-67
2022/03/13 02:06:58;;;;;;;5.17;3.17;;;-1.70;51.40;-2.20;101150.00;;;;4970143;28;87978;-67
2022/03/13 02:09:25;;;;;;;3.00;2.20;;;-1.80;51.50;-2.20;101152.00;;;;4966761;28;88851;-67
2022/03/13 02:11:51;;;;;;;2.87;2.03;;;-1.20;51.90;-2.20;101150.00;;;;4954298;28;96254;-67
2022/03/13 02:14:21;;;;;;;4.53;2.10;;;-1.30;51.90;-2.20;101149.00;;;;4952795;28;87818;-67
2022/03/13 02:16:48;;;;;;;1.97;1.80;;;-1.70;51.80;-2.20;101143.00;;;;4954349;28;88838;-65
2022/03/13 02:19:16;;;;;;;3.53;2.67;;;-1.90;51.70;-2.20;101147.00;;;;4954462;28;87842;-66
2022/03/13 02:21:48;;;;;;;4.47;2.57;;;-1.80;51.80;-2.20;101148.00;;;;4953736;28;87901;-67
2022/03/13 02:24:16;;;;;;;3.60;2.27;;;-1.80;51.80;-2.20;101156.00;;;;4954055;28;91698;-69
2022/03/13 02:26:44;;;;;;;2.77;2.50;;;-1.70;52.00;-2.20;101153.00;;;;4952016;28;89614;-66
2022/03/13 02:29:15;;;;;;;3.73;2.33;;;-1.70;51.90;-2.20;101163.00;;;;4954627;28;87841;-66
2022/03/13 02:31:41;;;;;;;3.77;2.13;;;-1.80;51.80;-2.20;101155.00;;;;4969304;28;87907;-66
2022/03/13 02:34:12;;;;;;;4.47;2.37;;;-1.70;51.80;-2.10;101149.00;;;;4969522;28;88468;-66
2022/03/13 02:36:37;;;;;;;2.40;1.83;;;-1.70;51.80;-2.10;101149.00;;;;4959633;28;87880;-66
2022/03/13 02:39:05;;;;;;;6.47;2.80;;;-1.80;51.80;-2.10;101152.00;;;;4955383;28;87933;-67
2022/03/13 02:41:32;;;;;;;2.00;1.90;;;-1.70;52.40;-2.10;101150.00;;;;4957581;28;95389;-67
2022/03/13 02:43:58;;;;;;;2.13;1.97;;;-0.90;52.30;-2.10;101152.00;;;;4954461;28;103229;-67
2022/03/13 02:46:47;;;;;;;3.17;2.13;;;-1.50;52.10;-2.20;101149.00;;;;4957262;28;88663;-67
2022/03/13 02:49:18;;;;;;;5.43;2.37;;;-1.80;52.00;-2.10;101149.00;;;;4956962;28;88584;-66
2022/03/13 02:51:46;;;;;;;4.63;2.67;;;-1.70;52.10;-2.10;101148.00;;;;4957293;28;87905;-67
2022/03/13 02:54:14;;;;;;;2.17;1.97;;;-1.80;52.10;-2.20;101141.00;;;;4958816;28;88009;-67
2022/03/13 02:56:40;;;;;;;3.20;1.90;;;-1.80;52.30;-2.20;101150.00;;;;4973785;28;88492;-67
2022/03/13 02:59:06;;;;;;;2.57;2.37;;;-1.80;52.30;-2.30;101148.00;;;;4977207;28;94132;-67
2022/03/13 03:01:32;;;;;;;3.27;1.73;;;-1.80;52.60;-2.30;101147.00;;;;4975965;28;99670;-67
2022/03/13 03:04:01;;;;;;;2.50;2.30;;;-1.80;52.70;-2.30;101155.00;;;;4976217;28;88709;-67
2022/03/13 03:06:32;;;;;;;4.33;2.37;;;-1.20;53.20;-2.40;101148.00;;;;4938965;28;88019;-68
2022/03/13 03:09:03;;;;;;;2.97;2.17;;;-1.00;53.40;-2.40;101152.00;;;;4957746;28;87809;-68
2022/03/13 03:11:32;;;;;;;3.67;2.93;;;-1.90;53.00;-2.50;101153.00;;;;4957231;28;87775;-68
2022/03/13 03:14:01;;;;;;;2.10;1.97;;;-2.00;53.00;-2.50;101162.00;;;;4969671;28;90155;-68
2022/03/13 03:16:26;;;;;;;6.57;3.23;;;-2.10;53.20;-2.60;101160.00;;;;4976339;28;88846;-68
2022/03/13 03:18:52;;;;;;;4.87;2.73;;;-2.10;53.30;-2.60;101164.00;;;;4971324;28;87921;-68
2022/03/13 03:21:18;;;;;;;3.83;2.53;;;-1.90;53.50;-2.60;101152.00;;;;4967422;28;102336;-67
2022/03/13 03:23:43;;;;;;;3.90;2.70;;;-2.10;53.50;-2.50;101167.00;;;;4959377;28;102945;-68
2022/03/13 03:26:09;;;;;;;3.10;2.50;;;-2.20;53.40;-2.50;101159.00;;;;4956743;28;116358;-68
2022/03/13 03:28:35;;;;;;;3.20;2.13;;;-2.10;53.50;-2.60;101153.00;;;;4956426;28;110414;-68
2022/03/13 03:31:02;;;;;;;3.60;2.73;;;-2.10;53.50;-2.60;101151.00;;;;4957171;28;86716;-68
2022/03/13 03:33:29;;;;;;;3.60;2.80;;;-2.10;53.60;-2.60;101160.00;;;;4958158;28;104752;-67
2022/03/13 03:35:54;;;;;;;4.80;2.53;;;-2.20;53.60;-2.60;101148.00;;;;4957773;28;87742;-67
2022/03/13 03:38:21;;;;;;;3.13;2.47;;;-2.20;53.80;-2.60;101153.00;;;;4954676;28;110545;-67
2022/03/13 03:40:47;;;;;;;3.60;2.30;;;-2.20;53.80;-2.60;101147.00;;;;4955158;28;109894;-68
2022/03/13 03:43:13;;;;;;;5.10;2.97;;;-2.30;54.00;-2.70;101147.00;;;;4955910;28;88545;-67
2022/03/13 03:45:40;;;;;;;6.00;2.60;;;-2.20;54.10;-2.70;101162.00;;;;4957865;28;100359;-67
2022/03/13 03:48:05;;;;;;;3.23;2.43;;;-2.30;54.00;-2.70;101158.00;;;;4958068;28;87648;-68
2022/03/13 03:50:31;;;;;;;3.70;2.87;;;-2.30;54.00;-2.70;101153.00;;;;4975744;28;108446;-67
2022/03/13 03:52:57;;;;;;;2.20;1.90;;;-2.30;54.00;-2.80;101152.00;;;;4975895;28;88646;-68
2022/03/13 03:55:25;;;;;;;2.27;2.07;;;-2.40;54.00;-2.80;101148.00;;;;4957109;28;88349;-68
2022/03/13 03:57:51;;;;;;;3.53;2.93;;;-2.40;54.10;-2.80;101162.00;;;;4956270;28;87649;-67
2022/03/13 04:00:18;;;;;;;3.47;3.17;;;-2.40;54.20;-2.80;101153.00;;;;4960183;28;87803;-67
2022/03/13 04:02:44;;;;;;;5.20;2.60;;;-2.40;54.30;-2.90;101151.00;;;;4957154;28;89927;-67
2022/03/13 04:05:11;;;;;;;3.83;2.97;;;-2.50;54.40;-2.90;101157.00;;;;4975652;28;87909;-67
2022/03/13 04:07:37;;;;;;;5.30;2.80;;;-2.10;54.60;-2.90;101143.00;;;;4973923;28;87733;-67
2022/03/13 04:10:08;;;;;;;5.67;2.57;;;-2.50;54.50;-2.90;101158.00;;;;4963504;28;87743;-67
2022/03/13 04:12:35;;;;;;;3.20;2.00;;;-2.40;54.60;-2.90;101137.00;;;;4959835;28;88127;-67
2022/03/13 04:15:02;;;;;;;2.57;2.00;;;-2.50;54.50;-2.90;101144.00;;;;4965811;28;87978;-67
2022/03/13 04:17:31;;;;;;;8.37;2.77;;;-2.50;54.50;-2.90;101144.00;;;;4958493;28;87735;-67
2022/03/13 04:19:58;;;;;;;2.37;1.97;;;-2.50;55.10;-2.90;101143.00;;;;4969237;28;86726;-68
2022/03/13 04:22:23;;;;;;;2.20;2.00;;;-2.40;54.60;-2.90;101133.00;;;;4954387;28;88367;-67
2022/03/13 04:24:49;;;;;;;5.63;2.77;;;-1.60;55.00;-2.80;101147.00;;;;4968486;28;117553;-67
2022/03/13 04:27:15;;;;;;;3.63;2.37;;;-2.40;54.70;-2.80;101141.00;;;;4966542;28;89748;-67
2022/03/13 04:29:41;;;;;;;5.80;1.67;;;-2.40;54.70;-2.80;101143.00;;;;4961610;28;108954;-68
2022/03/13 04:32:08;;;;;;;3.93;2.13;;;-2.40;54.70;-2.80;101139.00;;;;4956146;28;88695;-68
2022/03/13 04:34:35;;;;;;;1.87;1.70;;;-2.40;54.60;-2.80;101143.00;;;;4967443;28;87858;-67
2022/03/13 04:37:01;;;;;;;3.00;2.10;;;-1.80;55.00;-2.80;101133.00;;;;4975220;28;87810;-67
2022/03/13 04:39:28;;;;;;;3.10;2.27;;;-2.40;54.60;-2.80;101134.00;;;;4973402;28;88147;-67
2022/03/13 04:41:54;;;;;;;2.73;1.90;;;-2.40;54.60;-2.80;101138.00;;;;4975180;28;87836;-67
2022/03/13 04:44:21;;;;;;;3.23;2.13;;;-1.60;54.90;-2.80;101133.00;;;;4975041;28;88694;-67
2022/03/13 04:46:47;;;;;;;3.70;2.83;;;-2.40;54.40;-2.70;101139.00;;;;4973326;28;87865;-66
2022/03/13 04:49:13;;;;;;;5.70;2.30;;;-2.10;54.60;-2.70;101138.00;;;;4974319;28;108819;-67
2022/03/13 04:51:39;;;;;;;4.30;2.37;;;-2.40;54.40;-2.70;101135.00;;;;4955504;28;119075;-67
2022/03/13 04:54:07;;;;;;;3.33;2.60;;;-2.30;54.40;-2.70;101132.00;;;;4956232;28;88082;-66
2022/03/13 04:56:33;;;;;;;2.30;1.87;;;-2.30;54.40;-2.70;101136.00;;;;4958610;28;87931;-66
2022/03/13 04:59:00;;;;;;;3.10;2.43;;;-2.30;54.40;-2.70;101142.00;;;;4975974;28;88214;-67
2022/03/13 05:01:26;;;;;;;2.20;2.00;;;-2.40;54.30;-2.70;101141.00;;;;4975323;28;88030;-66
2022/03/13 05:03:52;;;;;;;4.63;2.83;;;-2.40;54.30;-2.80;101135.00;;;;4972099;28;87925;-66
2022/03/13 05:06:17;;;;;;;4.20;1.83;;;-2.20;54.40;-2.80;101131.00;;;;4974890;28;87953;-67
2022/03/13 05:08:44;;;;;;;5.00;2.80;;;-2.40;54.40;-2.80;101135.00;;;;4972758;28;110121;-66
2022/03/13 05:11:10;;;;;;;4.60;2.77;;;-2.30;54.50;-2.80;101143.00;;;;4969731;28;87816;-66
2022/03/13 05:13:36;;;;;;;2.00;1.80;;;-1.70;54.80;-2.80;101131.00;;;;4958401;28;87914;-66
2022/03/13 05:16:03;;;;;;;4.23;2.60;;;-2.40;54.50;-2.70;101137.00;;;;4972595;28;88644;-66
2022/03/13 05:18:29;;;;;;;4.10;2.20;;;-2.30;54.50;-2.70;101145.00;;;;4973450;28;87548;-66
2022/03/13 05:20:55;;;;;;;3.03;2.07;;;-2.00;54.60;-2.70;101143.00;;;;4975270;28;88218;-66
2022/03/13 05:23:22;;;;;;;2.00;1.77;;;-2.30;54.40;-2.70;101155.00;;;;4972614;28;87831;-65
2022/03/13 05:25:48;;;;;;;2.37;2.07;;;-2.30;54.40;-2.70;101147.00;;;;4967507;28;87861;-65
2022/03/13 05:28:14;;;;;;;5.83;2.63;;;-1.70;54.70;-2.70;101147.00;;;;4972942;28;87552;-66
2022/03/13 05:30:40;;;;;;;2.77;2.13;;;-2.30;54.40;-2.70;101150.00;;;;4955090;28;88309;-65
2022/03/13 05:33:07;;;;;;;6.50;2.73;;;-2.10;54.50;-2.60;101157.00;;;;4956240;28;88224;-66
2022/03/13 05:35:33;;;;;;;3.83;2.53;;;-1.60;54.90;-2.60;101146.00;;;;4954327;28;87663;-66
2022/03/13 05:37:59;;;;;;;2.40;1.60;;;-2.20;54.40;-2.60;101153.00;;;;4954868;28;87586;-66
2022/03/13 05:40:26;;;;;;;3.10;2.17;;;-2.20;54.40;-2.60;101149.00;;;;4954363;28;89895;-66
2022/03/13 05:42:56;;;;;;;5.23;2.70;;;-2.20;54.40;-2.50;101149.00;;;;4969195;28;100554;-66
2022/03/13 05:45:23;;;;;;;4.20;2.30;;;-1.30;54.80;-2.50;101159.00;;;;4966894;28;88008;-66
2022/03/13 05:47:52;;;;;;;3.37;2.23;;;-1.90;55.00;-2.40;101166.00;;;;4974847;28;87820;-66
2022/03/13 05:50:19;;;;;;;3.00;2.80;;;-2.00;54.30;-2.30;101160.00;;;;4974736;28;88994;-66
2022/03/13 05:52:47;;;;;;;3.43;2.60;;;-2.00;54.20;-2.10;101171.00;;;;4970428;28;87823;-66
2022/03/13 05:55:15;;;;;;;2.07;1.60;;;-1.70;54.10;-2.00;101164.00;;;;4954292;28;87500;-66
2022/03/13 05:57:41;;;;;;;3.57;2.70;;;-1.60;54.00;-1.80;101172.00;;;;4953295;28;87192;-66
2022/03/13 06:00:11;;;;;;;4.47;2.27;;;-1.50;53.90;-1.60;101169.00;;;;4955271;28;89044;-66
2022/03/13 06:02:38;;;;;;;2.20;1.90;;;-1.40;53.70;-1.50;101175.00;;;;4955328;28;88775;-66
2022/03/13 06:05:05;;;;;;;6.37;2.40;;;-1.20;53.60;-1.20;101174.00;;;;4961418;28;89082;-67
2022/03/13 06:07:32;;;;;;;3.30;2.47;;;-1.00;53.40;-1.10;101173.00;;;;4973359;28;89270;-67
2022/03/13 06:10:03;;;;;;;3.07;2.17;;;-0.80;53.30;-0.80;101178.00;;;;4961764;28;89021;-67
2022/03/13 06:12:32;;;;;;;2.47;2.27;;;-0.60;53.10;-0.60;101183.00;;;;4938679;28;87695;-67
2022/03/13 06:14:59;;;;;;;2.13;1.70;;;-0.40;52.90;-0.30;101190.00;;;;4948428;28;87836;-66
2022/03/13 06:17:25;;;;;;;2.53;2.10;;;0.00;52.90;-0.10;101185.00;;;;4957723;28;96527;-68
2022/03/13 06:19:51;;;;;;;6.27;3.00;;;0.80;53.10;0.10;101176.00;;;;4972565;28;87816;-67
2022/03/13 06:22:18;;;;;;;4.03;3.13;;;0.20;52.40;0.40;101192.00;;;;4972981;28;89539;-68
2022/03/13 06:24:43;;;;;;;4.80;2.97;;;1.20;52.50;0.60;101176.00;;;;4970591;28;87778;-68
2022/03/13 06:27:10;;;;;;;6.23;3.67;;;0.70;51.80;0.90;101187.00;;;;4956076;28;108386;-67
2022/03/13 06:29:40;;;;;;;5.63;3.80;;;1.00;51.60;1.10;101190.00;;;;4966472;28;89709;-67
2022/03/13 06:32:07;;;;;;;4.30;2.70;;;1.30;51.10;1.40;101192.00;;;;4954497;28;89811;-67
2022/03/13 06:34:33;;;;;;;3.47;2.87;;;1.60;50.80;1.70;101197.00;;;;4954212;28;87730;-67
2022/03/13 06:36:59;;;;;;;4.47;2.67;;;1.80;50.50;2.00;101196.00;;;;4961664;28;88056;-67
2022/03/13 06:39:25;;;;;;;2.50;1.93;;;2.00;50.10;2.30;101198.00;;;;4954805;28;88223;-67
2022/03/13 06:41:52;;;;;;;4.63;2.53;;;2.80;50.00;2.60;101207.00;;;;4953747;28;107681;-67
2022/03/13 06:44:18;;;;;;;5.30;2.87;;;3.30;49.90;2.80;101203.00;;;;4954108;28;87771;-67
2022/03/13 06:46:44;;;;;;;4.27;2.27;;;3.10;49.10;3.10;101212.00;;;;4955930;28;86954;-68
2022/03/13 06:49:11;;;;;;;5.87;2.80;;;3.10;48.50;3.40;101200.00;;;;4958873;28;88150;-67
2022/03/13 06:51:40;;;;;;;3.60;1.90;;;3.50;48.40;3.70;101197.00;;;;4954065;28;88860;-68
2022/03/13 06:54:07;;;;;;;2.63;2.43;;;3.70;48.10;4.00;101197.00;;;;4954343;28;89062;-68
2022/03/13 06:56:34;;;;;;;3.63;2.60;;;4.00;47.70;4.30;101200.00;;;;4954229;28;87905;-68
2022/03/13 06:59:03;;;;;;;4.23;2.03;;;4.40;47.60;4.60;101197.00;;;;4959343;28;88087;-68
2022/03/13 07:01:30;;;;;;;3.60;2.30;;;4.70;47.10;4.90;101191.00;;;;4951390;28;91332;-68
2022/03/13 07:03:56;;;;;;;3.43;2.77;;;4.50;46.00;5.20;101199.00;;;;4957816;28;87749;-67
2022/03/13 07:06:21;;;;;;;4.00;2.40;;;5.20;45.80;5.40;101194.00;;;;4955302;28;109071;-67
2022/03/13 07:08:47;;;;;;;3.47;2.80;;;5.50;45.30;5.60;101194.00;;;;4952587;28;115904;-68
2022/03/13 07:11:15;;;;;;;4.50;2.77;;;5.70;44.70;5.90;101198.00;;;;4953721;28;117106;-67
2022/03/13 07:13:45;;;;;;;4.03;3.50;;;5.90;44.30;6.10;101184.00;;;;4957435;28;87933;-67
2022/03/13 07:16:13;;;;;;;10.03;6.70;;;6.10;43.10;6.40;101188.00;;;;4953690;28;87897;-67
2022/03/13 07:18:39;;;;;;;6.80;4.70;;;6.40;43.10;6.60;101192.00;;;;4960433;28;90059;-67
2022/03/13 07:21:05;;;;;;;10.87;7.27;;;6.60;42.20;6.80;101188.00;;;;4954953;28;89510;-67
2022/03/13 07:23:31;;;;;;;9.63;6.57;;;6.80;41.50;7.00;101185.00;;;;4951093;28;87619;-67
2022/03/13 07:25:57;;;;;;;11.77;6.23;;;7.00;40.80;7.10;101187.00;;;;4954769;28;90890;-68
2022/03/13 07:28:22;;;;;;;5.07;3.57;;;7.20;40.60;7.30;101184.00;;;;4951235;28;116155;-67
2022/03/13 07:30:48;;;;;;;6.03;4.00;;;7.30;40.10;7.50;101179.00;;;;4953155;28;87648;-67
2022/03/13 07:33:14;;;;;;;5.37;3.33;;;7.50;39.60;7.80;101182.00;;;;4952542;28;87766;-67
2022/03/13 07:35:40;;;;;;;4.47;3.03;;;7.80;39.30;7.90;101184.00;;;;4954422;28;87337;-67
2022/03/13 07:38:06;;;;;;;3.97;2.57;;;7.90;38.00;8.10;101187.00;;;;4960958;28;88878;-67
2022/03/13 07:40:32;;;;;;;4.53;2.63;;;8.10;38.10;8.30;101179.00;;;;4953234;28;88693;-67
2022/03/13 07:42:58;;;;;;;5.27;3.20;;;8.30;37.80;8.50;101179.00;;;;4953706;28;88634;-67
2022/03/13 07:45:25;;;;;;;4.40;2.93;;;8.50;37.60;8.80;101187.00;;;;4960236;28;87987;-69
2022/03/13 07:47:54;;;;;;;8.00;2.93;;;8.70;37.80;9.00;101181.00;;;;4958234;28;87746;-67
2022/03/13 07:50:21;;;;;;;3.47;2.77;;;8.90;36.80;9.20;101190.00;;;;4952840;28;88892;-67
2022/03/13 07:52:47;;;;;;;3.77;2.60;;;9.20;36.30;9.50;101191.00;;;;4958127;28;89210;-67
2022/03/13 07:55:14;;;;;;;4.63;2.73;;;9.40;34.30;9.50;101185.00;;;;4953036;28;87845;-68
2022/03/13 07:57:40;;;;;;;2.77;2.47;;;9.50;33.50;9.50;101194.00;;;;4953420;28;87958;-69
2022/03/13 08:00:07;;;;;;;3.20;2.47;;;9.50;33.60;9.70;101185.00;;;;4954331;28;87894;-67
2022/03/13 08:02:33;;;;;;;4.27;2.30;;;9.70;33.70;9.80;101193.00;;;;4952864;28;90877;-66
2022/03/13 08:04:58;;;;;;;7.03;2.97;;;9.70;32.80;9.80;101188.00;;;;4952296;28;96589;-67
2022/03/13 08:07:24;;;;;;;3.43;2.87;;;9.80;33.00;10.00;101183.00;;;;4957300;28;118851;-67
2022/03/13 08:09:50;;;;;;;4.10;2.80;;;10.00;32.10;10.00;101189.00;;;;4959281;28;108976;-67
2022/03/13 08:12:15;;;;;;;5.20;2.60;;;10.10;31.70;10.20;101183.00;;;;4955207;28;101747;-67
2022/03/13 08:14:41;;;;;;;3.40;2.53;;;10.10;31.90;10.40;101190.00;;;;4953623;28;95182;-66
2022/03/13 08:17:07;;;;;;;5.03;2.23;;;10.30;31.90;10.50;101189.00;;;;4951838;28;118231;-67
2022/03/13 08:19:32;;;;;;;4.10;2.20;;;10.50;31.00;10.50;101192.00;;;;4956554;28;117476;-67
2022/03/13 08:21:58;;;;;;;4.47;2.60;;;10.50;29.80;10.40;101182.00;;;;4957125;28;88086;-66
2022/03/13 08:24:24;;;;;;;3.40;2.57;;;10.50;29.10;10.40;101182.00;;;;4952611;28;109477;-67
2022/03/13 08:26:50;;;;;;;4.13;2.20;;;10.60;29.50;10.60;101187.00;;;;4951065;28;88401;-66
2022/03/13 08:29:15;;;;;;;6.00;2.63;;;10.50;29.70;10.80;101182.00;;;;4952109;28;117053;-66
2022/03/13 08:31:41;;;;;;;5.20;3.37;;;10.70;29.50;11.00;101196.00;;;;4951547;28;88956;-67
2022/03/13 08:34:08;;;;;;;3.03;2.40;;;10.90;29.40;11.20;101186.00;;;;4955843;28;87810;-67
2022/03/13 08:36:45;;;;;;;4.27;2.57;;;11.10;29.00;11.30;101177.00;;;;4952112;28;89188;-67
2022/03/13 08:39:11;;;;;;;3.37;2.40;;;11.20;27.90;11.40;101190.00;;;;4951445;28;88491;-66
2022/03/13 08:41:37;;;;;;;4.17;2.20;;;11.40;27.60;11.60;101190.00;;;;4952321;28;88865;-66
2022/03/13 08:44:03;;;;;;;4.27;2.67;;;11.50;28.00;11.70;101182.00;;;;4955468;28;87530;-68
2022/03/13 08:46:29;;;;;;;6.63;2.27;;;11.70;27.50;11.80;101190.00;;;;4955586;28;102038;-68
2022/03/13 08:48:55;;;;;;;5.80;2.87;;;12.00;26.80;11.70;101189.00;;;;4952996;28;88564;-65
2022/03/13 08:51:23;;;;;;;3.90;2.37;;;11.80;26.30;11.60;101175.00;;;;4951408;28;110488;-68
2022/03/13 08:53:50;;;;;;;2.20;1.93;;;11.70;25.40;11.30;101186.00;;;;4952737;28;87734;-68
2022/03/13 08:56:17;;;;;;;3.73;1.97;;;11.50;24.80;11.30;101183.00;;;;4951651;28;89581;-68
2022/03/13 08:58:42;;;;;;;3.53;2.07;;;11.30;24.90;11.30;101183.00;;;;4950138;28;88328;-66
2022/03/13 09:01:09;;;;;;;3.97;2.07;;;11.30;25.10;11.30;101182.00;;;;4952262;28;110080;-67
2022/03/13 09:03:36;;;;;;;5.50;1.97;;;11.40;24.90;11.30;101184.00;;;;4952489;28;87824;-68
2022/03/13 09:06:02;;;;;;;2.33;2.00;;;11.30;24.80;11.40;101186.00;;;;4951191;28;89317;-67
2022/03/13 09:08:28;;;;;;;4.20;2.30;;;11.40;24.90;11.50;101196.00;;;;4952293;28;88897;-67
2022/03/13 09:10:54;;;;;;;4.07;2.20;;;11.40;25.30;11.50;101202.00;;;;4952742;28;110744;-67
2022/03/13 09:13:20;;;;;;;4.23;1.77;;;11.50;24.10;11.50;101189.00;;;;4952282;28;87192;-67
2022/03/13 09:15:50;;;;;;;1.90;1.77;;;11.50;24.40;11.70;101198.00;;;;4953124;28;88363;-66
2022/03/13 09:18:16;;;;;;;4.23;2.03;;;11.60;24.80;12.00;101191.00;;;;4944158;28;88188;-67
2022/03/13 09:20:42;;;;;;;2.43;2.23;;;11.80;24.80;12.30;101185.00;;;;4954813;28;88955;-67
2022/03/13 09:23:08;;;;;;;4.30;1.83;;;12.10;24.60;12.60;101187.00;;;;4952628;28;87961;-67
2022/03/13 09:25:35;;;;;;;2.53;1.90;;;12.40;24.00;12.80;101191.00;;;;4951693;28;88587;-67
2022/03/13 09:28:02;;;;;;;3.27;2.10;;;12.60;23.40;13.00;101201.00;;;;4952331;28;88005;-67
2022/03/13 09:30:28;;;;;;;2.80;1.77;;;12.80;23.60;13.00;101196.00;;;;4958807;28;87941;-67
2022/03/13 09:32:54;;;;;;;1.70;1.57;;;12.90;22.90;13.00;101186.00;;;;4954393;28;87949;-68
2022/03/13 09:35:19;;;;;;;2.47;1.43;;;12.90;23.10;13.20;101192.00;;;;4950808;28;94343;-67
2022/03/13 09:37:46;;;;;;;3.10;1.67;;;13.10;22.90;13.40;101196.00;;;;4949944;28;87438;-68
2022/03/13 09:40:14;;;;;;;2.97;2.13;;;13.20;22.50;13.40;101198.00;;;;4950201;28;89647;-67
2022/03/13 09:45:22;;;;;;;4.97;1.90;;;13.40;22.70;13.80;101201.00;;;;4957117;28;89851;-68
2022/03/13 09:47:48;;;;;;;3.33;1.80;;;13.60;23.00;13.90;101199.00;;;;4958070;28;88010;-69
2022/03/13 09:50:15;;;;;;;2.67;1.40;;;13.70;22.60;13.90;101197.00;;;;4957251;28;87977;-67
2022/03/13 09:52:42;;;;;;;2.77;2.20;;;13.80;21.60;13.70;101189.00;;;;4959561;28;87622;-68
2022/03/13 09:55:10;;;;;;;2.63;1.93;;;13.80;21.50;13.80;101194.00;;;;4962202;28;88789;-66
2022/03/13 09:57:39;;;;;;;2.57;1.67;;;13.70;21.90;14.00;101197.00;;;;4954657;28;88631;-68
2022/03/13 10:00:16;;;;;;;2.57;1.63;;;13.80;22.20;14.10;101185.00;;;;4956496;28;87977;-66
2022/03/13 10:02:43;;;;;;;4.27;2.00;;;14.00;21.50;14.20;101180.00;;;;4959663;28;87141;-65
2022/03/13 10:05:15;;;;;;;2.67;2.00;;;14.00;21.70;14.40;101185.00;;;;4954350;28;88946;-67
2022/03/13 10:08:02;;;;;;;7.43;2.47;;;14.20;21.60;14.70;101187.00;;;;4953389;28;88794;-66
2022/03/13 10:10:50;;;;;;;1.63;1.30;;;14.40;21.90;14.80;101181.00;;;;4968697;28;88766;-68
2022/03/13 10:13:45;;;;;;;3.63;1.70;;;14.60;21.60;15.10;101182.00;;;;4954208;28;88224;-66
2022/03/13 10:16:34;;;;;;;2.67;1.80;;;14.80;21.80;15.10;101185.00;;;;4954353;28;88061;-67
2022/03/13 10:19:17;;;;;;;4.60;2.60;;;14.90;21.80;15.30;101180.00;;;;4958585;28;87906;-66
2022/03/13 10:22:03;;;;;;;4.90;2.55;;;15.00;21.50;15.30;101177.00;;;;4954485;28;87864;-67
2022/03/13 10:24:41;;;;;;;2.95;1.83;;;15.10;21.70;15.40;101184.00;;;;4952628;28;87693;-66
2022/03/13 10:27:20;;;;;;;2.67;1.67;;;15.20;21.50;15.20;101186.00;;;;4954433;28;87765;-67
2022/03/13 10:29:47;;;;;;;2.03;1.70;;;15.10;21.20;15.40;101171.00;;;;4952898;28;89415;-68
2022/03/13 10:32:14;;;;;;;3.13;1.98;;;15.10;22.00;15.60;101184.00;;;;4953186;28;87948;-67
2022/03/13 10:34:41;;;;;;;2.20;1.77;;;15.20;21.60;15.50;101163.00;;;;4959452;28;87765;-67
2022/03/13 10:37:08;;;;;;;1.80;1.52;;;15.30;21.10;15.50;101172.00;;;;4959446;28;90258;-67
2022/03/13 10:39:35;;;;;;;2.17;1.65;;;15.30;21.00;15.60;101177.00;;;;4953767;28;89337;-66
2022/03/13 10:42:04;;;;;;;2.42;1.58;;;15.30;21.40;15.80;101169.00;;;;4954510;28;87652;-67
2022/03/13 10:44:34;;;;;;;1.83;1.10;;;15.50;21.60;16.10;101168.00;;;;4954208;28;87871;-68
2022/03/13 10:47:08;;;;;;;2.95;1.55;;;15.70;21.30;16.20;101170.00;;;;4954283;28;88371;-67
2022/03/13 10:49:43;;;;;;;2.58;1.77;;;15.80;21.20;16.30;101182.00;;;;4957405;28;88663;-67
2022/03/13 10:52:34;;;;;;;1.98;1.60;;;16.00;21.00;16.20;101169.00;;;;4955158;28;87886;-67